Terminal Aerodrome Forecast
Issued by NWS

Home | Current Version | Previous Version | Text Only | Print | Product List | Glossary On
Versions: 1 2 3 4 5 6 7 8 9 10 11 12 13 14 15 16 17 18 19 20 21 22 23 24 25 26 27 28
000
FTUS43 KDDC 260225 AAA
TAFHYS
TAF AMD
KHYS 260225Z 2602/2624 01015G22KT P6SM VCSH OVC015
     FM260900 35016G23KT P6SM OVC025
     FM261400 34020G29KT P6SM BKN035
     FM262300 34012KT P6SM FEW200=

USA.gov is the U.S. government's official web portal to all federal, state and local government web resources and services.